sensor_id;sensor_type;location;lat;lon;timestamp;P1;durP1;ratioP1;P2;durP2;ratioP2
18879;SDS011;9572;52.378;13.404;2023-08-06T00:50:31;6.90;;;5.60;;
18879;SDS011;9572;52.378;13.404;2023-08-06T00:52:59;6.20;;;5.53;;
18879;SDS011;9572;52.378;13.404;2023-08-06T00:55:29;5.90;;;5.35;;
18879;SDS011;9572;52.378;13.404;2023-08-06T00:57:59;5.97;;;5.38;;
18879;SDS011;9572;52.378;13.404;2023-08-06T01:00:27;5.57;;;5.07;;
18879;SDS011;9572;52.378;13.404;2023-08-06T01:02:59;6.25;;;5.47;;
18879;SDS011;9572;52.378;13.404;2023-08-06T01:05:27;6.95;;;6.13;;
18879;SDS011;9572;52.378;13.404;2023-08-06T01:08:06;5.60;;;5.00;;
18879;SDS011;9572;52.378;13.404;2023-08-06T01:10:49;5.68;;;5.07;;
18879;SDS011;9572;52.378;13.404;2023-08-06T01:13:37;5.78;;;5.20;;
18879;SDS011;9572;52.378;13.404;2023-08-06T01:16:21;5.90;;;5.40;;
18879;SDS011;9572;52.378;13.404;2023-08-06T01:18:50;6.13;;;5.53;;
18879;SDS011;9572;52.378;13.404;2023-08-06T01:21:21;6.93;;;5.57;;
18879;SDS011;9572;52.378;13.404;2023-08-06T01:23:48;7.15;;;5.50;;
18879;SDS011;9572;52.378;13.404;2023-08-06T01:26:19;8.43;;;5.50;;
18879;SDS011;9572;52.378;13.404;2023-08-06T01:28:55;6.30;;;5.70;;
18879;SDS011;9572;52.378;13.404;2023-08-06T01:31:27;8.65;;;5.43;;
18879;SDS011;9572;52.378;13.404;2023-08-06T01:34:13;6.00;;;5.35;;
18879;SDS011;9572;52.378;13.404;2023-08-06T01:36:52;6.47;;;5.18;;
18879;SDS011;9572;52.378;13.404;2023-08-06T01:39:20;7.32;;;5.78;;
18879;SDS011;9572;52.378;13.404;2023-08-06T01:41:47;8.65;;;6.00;;
18879;SDS011;9572;52.378;13.404;2023-08-06T01:44:19;6.78;;;5.90;;
18879;SDS011;9572;52.378;13.404;2023-08-06T01:46:48;8.15;;;5.97;;
18879;SDS011;9572;52.378;13.404;2023-08-06T01:49:19;6.00;;;5.50;;
18879;SDS011;9572;52.378;13.404;2023-08-06T01:51:57;8.65;;;6.63;;
18879;SDS011;9572;52.378;13.404;2023-08-06T01:54:26;9.07;;;6.53;;
18879;SDS011;9572;52.378;13.404;2023-08-06T01:56:57;7.22;;;6.35;;
18879;SDS011;9572;52.378;13.404;2023-08-06T01:59:26;7.63;;;6.93;;
18879;SDS011;9572;52.378;13.404;2023-08-06T02:02:06;9.70;;;7.22;;
18879;SDS011;9572;52.378;13.404;2023-08-06T02:04:39;9.95;;;6.95;;
18879;SDS011;9572;52.378;13.404;2023-08-06T02:07:21;8.48;;;6.60;;
18879;SDS011;9572;52.378;13.404;2023-08-06T02:09:53;7.50;;;6.18;;
18879;SDS011;9572;52.378;13.404;2023-08-06T02:15:49;6.88;;;6.18;;
18879;SDS011;9572;52.378;13.404;2023-08-06T02:18:53;6.85;;;6.07;;
18879;SDS011;9572;52.378;13.404;2023-08-06T02:28:12;6.13;;;5.50;;
18879;SDS011;9572;52.378;13.404;2023-08-06T02:30:53;9.15;;;6.10;;
18879;SDS011;9572;52.378;13.404;2023-08-06T02:33:39;7.03;;;5.10;;
18879;SDS011;9572;52.378;13.404;2023-08-06T02:36:06;5.90;;;5.30;;
18879;SDS011;9572;52.378;13.404;2023-08-06T02:38:35;6.55;;;5.85;;
18879;SDS011;9572;52.378;13.404;2023-08-06T02:41:04;5.82;;;5.13;;
18879;SDS011;9572;52.378;13.404;2023-08-06T02:43:32;6.32;;;5.70;;
18879;SDS011;9572;52.378;13.404;2023-08-06T02:46:04;5.95;;;4.82;;
18879;SDS011;9572;52.378;13.404;2023-08-06T02:48:31;5.70;;;4.80;;
18879;SDS011;9572;52.378;13.404;2023-08-06T02:50:59;4.95;;;4.38;;
18879;SDS011;9572;52.378;13.404;2023-08-06T02:53:28;4.82;;;4.35;;
18879;SDS011;9572;52.378;13.404;2023-08-06T02:55:57;4.65;;;4.25;;
18879;SDS011;9572;52.378;13.404;2023-08-06T02:58:25;4.85;;;4.45;;
18879;SDS011;9572;52.378;13.404;2023-08-06T03:01:00;7.10;;;4.65;;
18879;SDS011;9572;52.378;13.404;2023-08-06T03:03:28;9.80;;;5.78;;
18879;SDS011;9572;52.378;13.404;2023-08-06T03:05:55;5.47;;;4.97;;
18879;SDS011;9572;52.378;13.404;2023-08-06T03:08:22;7.22;;;5.30;;
18879;SDS011;9572;52.378;13.404;2023-08-06T03:10:49;5.53;;;4.88;;
18879;SDS011;9572;52.378;13.404;2023-08-06T03:13:17;6.22;;;5.10;;
18879;SDS011;9572;52.378;13.404;2023-08-06T03:15:57;6.10;;;5.18;;
18879;SDS011;9572;52.378;13.404;2023-08-06T03:18:26;6.63;;;4.78;;
18879;SDS011;9572;52.378;13.404;2023-08-06T03:20:55;7.82;;;4.88;;
18879;SDS011;9572;52.378;13.404;2023-08-06T03:23:22;6.13;;;5.03;;
18879;SDS011;9572;52.378;13.404;2023-08-06T03:25:49;6.60;;;5.40;;
18879;SDS011;9572;52.378;13.404;2023-08-06T03:28:16;7.50;;;5.57;;
18879;SDS011;9572;52.378;13.404;2023-08-06T03:30:43;5.60;;;4.70;;
18879;SDS011;9572;52.378;13.404;2023-08-06T03:33:10;5.45;;;4.95;;
18879;SDS011;9572;52.378;13.404;2023-08-06T03:35:38;5.43;;;4.88;;
18879;SDS011;9572;52.378;13.404;2023-08-06T03:38:05;5.45;;;4.95;;
18879;SDS011;9572;52.378;13.404;2023-08-06T03:40:34;5.40;;;4.90;;
18879;SDS011;9572;52.378;13.404;2023-08-06T03:43:01;5.05;;;4.55;;
18879;SDS011;9572;52.378;13.404;2023-08-06T03:45:29;6.38;;;4.85;;
18879;SDS011;9572;52.378;13.404;2023-08-06T03:47:56;5.75;;;4.95;;
18879;SDS011;9572;52.378;13.404;2023-08-06T03:50:23;7.00;;;5.30;;
18879;SDS011;9572;52.378;13.404;2023-08-06T03:52:51;7.22;;;5.15;;
18879;SDS011;9572;52.378;13.404;2023-08-06T03:55:18;6.07;;;5.00;;
18879;SDS011;9572;52.378;13.404;2023-08-06T03:57:45;5.32;;;4.55;;
18879;SDS011;9572;52.378;13.404;2023-08-06T04:00:15;5.13;;;4.70;;
18879;SDS011;9572;52.378;13.404;2023-08-06T04:02:43;5.60;;;5.03;;
18879;SDS011;9572;52.378;13.404;2023-08-06T04:05:10;7.00;;;4.72;;
18879;SDS011;9572;52.378;13.404;2023-08-06T04:07:39;5.88;;;5.05;;
18879;SDS011;9572;52.378;13.404;2023-08-06T04:10:09;5.22;;;4.72;;
18879;SDS011;9572;52.378;13.404;2023-08-06T04:12:36;6.82;;;5.65;;
18879;SDS011;9572;52.378;13.404;2023-08-06T04:15:04;6.05;;;5.50;;
18879;SDS011;9572;52.378;13.404;2023-08-06T04:17:32;6.00;;;5.40;;
18879;SDS011;9572;52.378;13.404;2023-08-06T04:20:02;6.00;;;5.25;;
18879;SDS011;9572;52.378;13.404;2023-08-06T04:22:30;6.18;;;5.60;;
18879;SDS011;9572;52.378;13.404;2023-08-06T04:24:58;7.15;;;5.47;;
18879;SDS011;9572;52.378;13.404;2023-08-06T04:27:27;5.47;;;4.97;;
18879;SDS011;9572;52.378;13.404;2023-08-06T04:29:54;5.72;;;5.22;;
18879;SDS011;9572;52.378;13.404;2023-08-06T04:32:22;6.60;;;5.05;;
18879;SDS011;9572;52.378;13.404;2023-08-06T04:34:51;6.47;;;5.38;;
18879;SDS011;9572;52.378;13.404;2023-08-06T04:37:18;8.88;;;5.70;;
18879;SDS011;9572;52.378;13.404;2023-08-06T04:39:45;6.90;;;6.20;;
18879;SDS011;9572;52.378;13.404;2023-08-06T04:42:12;9.57;;;7.00;;
18879;SDS011;9572;52.378;13.404;2023-08-06T04:44:40;6.40;;;5.63;;
18879;SDS011;9572;52.378;13.404;2023-08-06T04:47:07;6.63;;;5.15;;
18879;SDS011;9572;52.378;13.404;2023-08-06T04:49:34;5.95;;;5.32;;
18879;SDS011;9572;52.378;13.404;2023-08-06T04:52:01;6.15;;;5.55;;
18879;SDS011;9572;52.378;13.404;2023-08-06T04:54:29;7.18;;;5.85;;
18879;SDS011;9572;52.378;13.404;2023-08-06T04:56:56;6.20;;;5.55;;
18879;SDS011;9572;52.378;13.404;2023-08-06T04:59:23;6.97;;;5.80;;
18879;SDS011;9572;52.378;13.404;2023-08-06T05:01:51;6.30;;;5.78;;
18879;SDS011;9572;52.378;13.404;2023-08-06T05:04:18;5.10;;;4.70;;
18879;SDS011;9572;52.378;13.404;2023-08-06T05:06:45;6.60;;;6.00;;
18879;SDS011;9572;52.378;13.404;2023-08-06T05:09:11;6.47;;;5.88;;
18879;SDS011;9572;52.378;13.404;2023-08-06T05:11:39;7.05;;;5.68;;
18879;SDS011;9572;52.378;13.404;2023-08-06T05:14:07;5.72;;;5.03;;
18879;SDS011;9572;52.378;13.404;2023-08-06T05:16:39;8.15;;;6.70;;
18879;SDS011;9572;52.378;13.404;2023-08-06T05:19:12;6.10;;;5.50;;
18879;SDS011;9572;52.378;13.404;2023-08-06T05:21:39;6.68;;;6.07;;
18879;SDS011;9572;52.378;13.404;2023-08-06T05:24:08;6.43;;;5.82;;
18879;SDS011;9572;52.378;13.404;2023-08-06T05:26:39;6.00;;;5.43;;
18879;SDS011;9572;52.378;13.404;2023-08-06T05:29:08;5.93;;;5.40;;
18879;SDS011;9572;52.378;13.404;2023-08-06T05:31:37;6.60;;;6.00;;
18879;SDS011;9572;52.378;13.404;2023-08-06T05:34:23;6.55;;;5.93;;
18879;SDS011;9572;52.378;13.404;2023-08-06T05:36:50;6.00;;;5.40;;
18879;SDS011;9572;52.378;13.404;2023-08-06T05:39:17;5.18;;;4.68;;
18879;SDS011;9572;52.378;13.404;2023-08-06T05:41:47;5.25;;;4.75;;
18879;SDS011;9572;52.378;13.404;2023-08-06T05:44:18;5.30;;;4.80;;
18879;SDS011;9572;52.378;13.404;2023-08-06T05:46:48;6.90;;;4.55;;
18879;SDS011;9572;52.378;13.404;2023-08-06T05:49:22;4.72;;;4.22;;
18879;SDS011;9572;52.378;13.404;2023-08-06T05:51:50;5.28;;;4.78;;
18879;SDS011;9572;52.378;13.404;2023-08-06T05:54:18;4.70;;;4.30;;
18879;SDS011;9572;52.378;13.404;2023-08-06T05:56:49;4.80;;;4.40;;
18879;SDS011;9572;52.378;13.404;2023-08-06T05:59:18;5.55;;;4.90;;
18879;SDS011;9572;52.378;13.404;2023-08-06T06:01:48;4.78;;;4.30;;
18879;SDS011;9572;52.378;13.404;2023-08-06T06:04:17;5.57;;;5.07;;
18879;SDS011;9572;52.378;13.404;2023-08-06T06:06:49;6.10;;;5.50;;
18879;SDS011;9572;52.378;13.404;2023-08-06T06:09:17;6.32;;;5.82;;
18879;SDS011;9572;52.378;13.404;2023-08-06T06:11:48;6.60;;;5.90;;
18879;SDS011;9572;52.378;13.404;2023-08-06T06:14:18;5.90;;;5.35;;
18879;SDS011;9572;52.378;13.404;2023-08-06T06:16:47;6.60;;;6.00;;
18879;SDS011;9572;52.378;13.404;2023-08-06T06:19:19;6.05;;;5.50;;
18879;SDS011;9572;52.378;13.404;2023-08-06T06:21:52;6.05;;;5.55;;
18879;SDS011;9572;52.378;13.404;2023-08-06T06:24:22;6.80;;;6.20;;
18879;SDS011;9572;52.378;13.404;2023-08-06T06:30:09;6.60;;;6.00;;
18879;SDS011;9572;52.378;13.404;2023-08-06T06:32:37;5.75;;;5.25;;
18879;SDS011;9572;52.378;13.404;2023-08-06T06:35:08;5.50;;;5.00;;
18879;SDS011;9572;52.378;13.404;2023-08-06T06:37:43;5.85;;;5.35;;
18879;SDS011;9572;52.378;13.404;2023-08-06T06:40:10;5.63;;;5.13;;
18879;SDS011;9572;52.378;13.404;2023-08-06T06:42:38;5.57;;;4.97;;
18879;SDS011;9572;52.378;13.404;2023-08-06T06:45:09;7.82;;;6.53;;
18879;SDS011;9572;52.378;13.404;2023-08-06T06:47:37;6.68;;;5.97;;
18879;SDS011;9572;52.378;13.404;2023-08-06T06:50:09;10.82;;;6.00;;
18879;SDS011;9572;52.378;13.404;2023-08-06T06:52:37;6.13;;;5.32;;
18879;SDS011;9572;52.378;13.404;2023-08-06T06:55:10;5.03;;;4.38;;
18879;SDS011;9572;52.378;13.404;2023-08-06T06:57:38;5.53;;;4.93;;
18879;SDS011;9572;52.378;13.404;2023-08-06T07:00:08;5.40;;;4.90;;
18879;SDS011;9572;52.378;13.404;2023-08-06T07:02:39;6.15;;;5.65;;
18879;SDS011;9572;52.378;13.404;2023-08-06T07:05:07;6.22;;;5.07;;
18879;SDS011;9572;52.378;13.404;2023-08-06T07:07:34;5.13;;;4.70;;
18879;SDS011;9572;52.378;13.404;2023-08-06T07:10:04;5.47;;;4.97;;
18879;SDS011;9572;52.378;13.404;2023-08-06T07:12:32;5.28;;;4.78;;
18879;SDS011;9572;52.378;13.404;2023-08-06T07:14:59;6.50;;;5.78;;
18879;SDS011;9572;52.378;13.404;2023-08-06T07:17:25;5.57;;;5.07;;
18879;SDS011;9572;52.378;13.404;2023-08-06T07:19:52;5.78;;;4.93;;
18879;SDS011;9572;52.378;13.404;2023-08-06T07:22:19;6.18;;;4.90;;
18879;SDS011;9572;52.378;13.404;2023-08-06T07:24:46;5.38;;;4.70;;
18879;SDS011;9572;52.378;13.404;2023-08-06T07:27:14;5.85;;;5.30;;
18879;SDS011;9572;52.378;13.404;2023-08-06T07:29:41;5.90;;;5.30;;
18879;SDS011;9572;52.378;13.404;2023-08-06T07:32:08;6.00;;;5.40;;
18879;SDS011;9572;52.378;13.404;2023-08-06T07:34:35;5.43;;;4.60;;
18879;SDS011;9572;52.378;13.404;2023-08-06T07:37:03;6.72;;;5.72;;
18879;SDS011;9572;52.378;13.404;2023-08-06T07:39:30;5.32;;;4.82;;
18879;SDS011;9572;52.378;13.404;2023-08-06T07:41:57;5.05;;;4.65;;
18879;SDS011;9572;52.378;13.404;2023-08-06T07:44:26;6.50;;;5.90;;
18879;SDS011;9572;52.378;13.404;2023-08-06T07:46:53;5.88;;;5.32;;
18879;SDS011;9572;52.378;13.404;2023-08-06T07:49:20;7.15;;;5.82;;
18879;SDS011;9572;52.378;13.404;2023-08-06T07:51:48;6.68;;;4.68;;
18879;SDS011;9572;52.378;13.404;2023-08-06T07:54:18;5.57;;;5.05;;
18879;SDS011;9572;52.378;13.404;2023-08-06T07:56:49;8.13;;;5.60;;
18879;SDS011;9572;52.378;13.404;2023-08-06T07:59:17;6.82;;;6.20;;
18879;SDS011;9572;52.378;13.404;2023-08-06T08:01:54;6.72;;;4.95;;
18879;SDS011;9572;52.378;13.404;2023-08-06T08:04:21;7.65;;;6.57;;
18879;SDS011;9572;52.378;13.404;2023-08-06T08:06:48;6.88;;;6.18;;
18879;SDS011;9572;52.378;13.404;2023-08-06T08:09:19;6.90;;;6.20;;
18879;SDS011;9572;52.378;13.404;2023-08-06T08:11:48;5.20;;;4.70;;
18879;SDS011;9572;52.378;13.404;2023-08-06T08:14:19;5.75;;;5.13;;
18879;SDS011;9572;52.378;13.404;2023-08-06T08:16:47;5.78;;;5.28;;
18879;SDS011;9572;52.378;13.404;2023-08-06T08:19:22;5.47;;;4.97;;
18879;SDS011;9572;52.378;13.404;2023-08-06T08:21:49;6.43;;;5.72;;
18879;SDS011;9572;52.378;13.404;2023-08-06T08:24:18;5.55;;;5.00;;
18879;SDS011;9572;52.378;13.404;2023-08-06T08:26:50;5.90;;;5.30;;
18879;SDS011;9572;52.378;13.404;2023-08-06T08:29:19;7.47;;;5.90;;
18879;SDS011;9572;52.378;13.404;2023-08-06T08:31:53;7.03;;;5.72;;
18879;SDS011;9572;52.378;13.404;2023-08-06T08:34:20;6.88;;;5.68;;
18879;SDS011;9572;52.378;13.404;2023-08-06T08:36:47;6.32;;;5.63;;
18879;SDS011;9572;52.378;13.404;2023-08-06T08:39:18;6.90;;;5.07;;
18879;SDS011;9572;52.378;13.404;2023-08-06T08:41:48;7.03;;;5.43;;
18879;SDS011;9572;52.378;13.404;2023-08-06T08:44:17;6.20;;;4.88;;
18879;SDS011;9572;52.378;13.404;2023-08-06T08:46:54;5.53;;;5.03;;
18879;SDS011;9572;52.378;13.404;2023-08-06T08:49:22;5.82;;;5.22;;
18879;SDS011;9572;52.378;13.404;2023-08-06T08:51:50;5.00;;;4.60;;
18879;SDS011;9572;52.378;13.404;2023-08-06T08:54:21;7.25;;;6.15;;
18879;SDS011;9572;52.378;13.404;2023-08-06T08:56:50;7.72;;;5.90;;
18879;SDS011;9572;52.378;13.404;2023-08-06T08:59:18;6.40;;;5.80;;
18879;SDS011;9572;52.378;13.404;2023-08-06T09:01:48;6.65;;;6.00;;
18879;SDS011;9572;52.378;13.404;2023-08-06T09:04:23;6.03;;;5.35;;
18879;SDS011;9572;52.378;13.404;2023-08-06T09:07:01;6.20;;;5.65;;
18879;SDS011;9572;52.378;13.404;2023-08-06T09:09:31;5.53;;;5.03;;
18879;SDS011;9572;52.378;13.404;2023-08-06T09:12:02;6.90;;;6.20;;
18879;SDS011;9572;52.378;13.404;2023-08-06T09:14:48;5.82;;;5.07;;
18879;SDS011;9572;52.378;13.404;2023-08-06T09:17:19;6.25;;;5.72;;
18879;SDS011;9572;52.378;13.404;2023-08-06T09:19:54;7.30;;;6.60;;
18879;SDS011;9572;52.378;13.404;2023-08-06T09:22:21;7.95;;;7.10;;
18879;SDS011;9572;52.378;13.404;2023-08-06T09:24:48;7.85;;;7.05;;
18879;SDS011;9572;52.378;13.404;2023-08-06T09:27:17;9.57;;;7.03;;
18879;SDS011;9572;52.378;13.404;2023-08-06T09:29:49;9.60;;;7.00;;
18879;SDS011;9572;52.378;13.404;2023-08-06T09:32:18;8.50;;;6.90;;
18879;SDS011;9572;52.378;13.404;2023-08-06T09:34:55;9.88;;;7.97;;
18879;SDS011;9572;52.378;13.404;2023-08-06T09:37:35;7.80;;;7.07;;
18879;SDS011;9572;52.378;13.404;2023-08-06T09:40:02;9.32;;;7.18;;
18879;SDS011;9572;52.378;13.404;2023-08-06T09:42:29;7.70;;;7.05;;
18879;SDS011;9572;52.378;13.404;2023-08-06T09:45:05;7.60;;;6.90;;
18879;SDS011;9572;52.378;13.404;2023-08-06T09:47:40;7.03;;;5.75;;
18879;SDS011;9572;52.378;13.404;2023-08-06T09:50:15;6.97;;;6.07;;
18879;SDS011;9572;52.378;13.404;2023-08-06T09:52:51;8.25;;;7.05;;
18879;SDS011;9572;52.378;13.404;2023-08-06T09:55:19;7.35;;;6.65;;
18879;SDS011;9572;52.378;13.404;2023-08-06T09:57:48;8.00;;;7.20;;
18879;SDS011;9572;52.378;13.404;2023-08-06T10:00:18;8.32;;;7.53;;
18879;SDS011;9572;52.378;13.404;2023-08-06T10:02:50;7.65;;;6.95;;
18879;SDS011;9572;52.378;13.404;2023-08-06T10:05:22;9.85;;;7.07;;
18879;SDS011;9572;52.378;13.404;2023-08-06T10:07:50;6.95;;;6.25;;
18879;SDS011;9572;52.378;13.404;2023-08-06T10:10:18;7.65;;;6.85;;
18879;SDS011;9572;52.378;13.404;2023-08-06T10:12:50;8.05;;;7.25;;
18879;SDS011;9572;52.378;13.404;2023-08-06T10:15:21;8.38;;;6.22;;
18879;SDS011;9572;52.378;13.404;2023-08-06T10:17:51;7.80;;;7.00;;
18879;SDS011;9572;52.378;13.404;2023-08-06T10:20:23;7.85;;;7.07;;
18879;SDS011;9572;52.378;13.404;2023-08-06T10:23:00;7.18;;;6.55;;
18879;SDS011;9572;52.378;13.404;2023-08-06T10:25:30;8.75;;;6.63;;
18879;SDS011;9572;52.378;13.404;2023-08-06T10:27:58;8.90;;;6.40;;
18879;SDS011;9572;52.378;13.404;2023-08-06T10:30:29;8.50;;;7.55;;
18879;SDS011;9572;52.378;13.404;2023-08-06T10:32:58;7.32;;;6.63;;
18879;SDS011;9572;52.378;13.404;2023-08-06T10:35:34;8.50;;;6.43;;
18879;SDS011;9572;52.378;13.404;2023-08-06T10:38:05;8.27;;;7.47;;
18879;SDS011;9572;52.378;13.404;2023-08-06T10:40:39;7.43;;;6.72;;
18879;SDS011;9572;52.378;13.404;2023-08-06T10:43:08;8.15;;;7.18;;
18879;SDS011;9572;52.378;13.404;2023-08-06T10:45:51;10.73;;;7.72;;
18879;SDS011;9572;52.378;13.404;2023-08-06T10:48:28;8.05;;;7.15;;
18879;SDS011;9572;52.378;13.404;2023-08-06T10:51:03;7.72;;;7.03;;
18879;SDS011;9572;52.378;13.404;2023-08-06T10:53:41;8.55;;;7.68;;
18879;SDS011;9572;52.378;13.404;2023-08-06T10:56:12;7.65;;;6.82;;
18879;SDS011;9572;52.378;13.404;2023-08-06T10:58:40;7.93;;;6.95;;
18879;SDS011;9572;52.378;13.404;2023-08-06T11:01:09;8.00;;;7.20;;
18879;SDS011;9572;52.378;13.404;2023-08-06T11:03:38;8.35;;;7.20;;
18879;SDS011;9572;52.378;13.404;2023-08-06T11:06:16;9.15;;;8.20;;
18879;SDS011;9572;52.378;13.404;2023-08-06T11:08:52;8.23;;;7.38;;
18879;SDS011;9572;52.378;13.404;2023-08-06T11:11:20;9.05;;;7.28;;
18879;SDS011;9572;52.378;13.404;2023-08-06T11:13:49;7.97;;;6.90;;
18879;SDS011;9572;52.378;13.404;2023-08-06T11:16:19;8.98;;;8.10;;
18879;SDS011;9572;52.378;13.404;2023-08-06T11:18:48;8.35;;;7.50;;
18879;SDS011;9572;52.378;13.404;2023-08-06T11:21:34;8.63;;;7.20;;
18879;SDS011;9572;52.378;13.404;2023-08-06T11:24:02;8.05;;;7.25;;
18879;SDS011;9572;52.378;13.404;2023-08-06T11:26:29;10.02;;;7.78;;
18879;SDS011;9572;52.378;13.404;2023-08-06T11:28:58;9.95;;;8.95;;
18879;SDS011;9572;52.378;13.404;2023-08-06T11:31:29;8.50;;;7.63;;
18879;SDS011;9572;52.378;13.404;2023-08-06T11:33:59;8.98;;;8.15;;
18879;SDS011;9572;52.378;13.404;2023-08-06T11:39:12;9.45;;;8.60;;
18879;SDS011;9572;52.378;13.404;2023-08-06T11:41:39;8.90;;;8.00;;
18879;SDS011;9572;52.378;13.404;2023-08-06T11:44:10;10.88;;;9.27;;
18879;SDS011;9572;52.378;13.404;2023-08-06T11:46:51;9.88;;;7.57;;
18879;SDS011;9572;52.378;13.404;2023-08-06T11:49:20;10.40;;;9.23;;
18879;SDS011;9572;52.378;13.404;2023-08-06T11:52:16;8.57;;;7.72;;
18879;SDS011;9572;52.378;13.404;2023-08-06T11:54:59;9.00;;;8.20;;
18879;SDS011;9572;52.378;13.404;2023-08-06T11:57:29;9.65;;;8.68;;
18879;SDS011;9572;52.378;13.404;2023-08-06T12:00:01;8.68;;;7.82;;
18879;SDS011;9572;52.378;13.404;2023-08-06T12:02:31;10.27;;;7.60;;
18879;SDS011;9572;52.378;13.404;2023-08-06T12:05:03;8.25;;;7.45;;
18879;SDS011;9572;52.378;13.404;2023-08-06T12:07:36;9.18;;;8.27;;
18879;SDS011;9572;52.378;13.404;2023-08-06T12:10:08;7.88;;;7.07;;
18879;SDS011;9572;52.378;13.404;2023-08-06T12:12:39;7.72;;;7.03;;
18879;SDS011;9572;52.378;13.404;2023-08-06T12:15:08;8.57;;;7.78;;
18879;SDS011;9572;52.378;13.404;2023-08-06T12:17:40;8.88;;;8.00;;
18879;SDS011;9572;52.378;13.404;2023-08-06T12:20:08;9.60;;;8.18;;
18879;SDS011;9572;52.378;13.404;2023-08-06T12:22:45;10.18;;;8.82;;
18879;SDS011;9572;52.378;13.404;2023-08-06T12:25:12;7.85;;;7.00;;
18879;SDS011;9572;52.378;13.404;2023-08-06T12:27:41;8.35;;;7.18;;
18879;SDS011;9572;52.378;13.404;2023-08-06T12:30:09;8.90;;;8.10;;
18879;SDS011;9572;52.378;13.404;2023-08-06T12:32:37;9.10;;;7.30;;
18879;SDS011;9572;52.378;13.404;2023-08-06T12:35:04;8.43;;;7.70;;
18879;SDS011;9572;52.378;13.404;2023-08-06T12:37:33;7.68;;;6.63;;
18879;SDS011;9572;52.378;13.404;2023-08-06T12:40:02;6.28;;;5.75;;
18879;SDS011;9572;52.378;13.404;2023-08-06T12:42:29;5.43;;;4.90;;
18879;SDS011;9572;52.378;13.404;2023-08-06T12:44:56;4.30;;;3.90;;
18879;SDS011;9572;52.378;13.404;2023-08-06T12:47:23;5.50;;;3.90;;
18879;SDS011;9572;52.378;13.404;2023-08-06T12:49:50;3.85;;;3.55;;
18879;SDS011;9572;52.378;13.404;2023-08-06T12:52:16;3.95;;;3.65;;
18879;SDS011;9572;52.378;13.404;2023-08-06T12:54:44;3.92;;;3.53;;
18879;SDS011;9572;52.378;13.404;2023-08-06T12:57:13;4.28;;;3.80;;
18879;SDS011;9572;52.378;13.404;2023-08-06T12:59:40;5.50;;;4.10;;
18879;SDS011;9572;52.378;13.404;2023-08-06T13:02:07;4.82;;;4.13;;
18879;SDS011;9572;52.378;13.404;2023-08-06T13:04:34;4.10;;;3.80;;
18879;SDS011;9572;52.378;13.404;2023-08-06T13:07:01;6.43;;;4.65;;
18879;SDS011;9572;52.378;13.404;2023-08-06T13:09:27;4.40;;;4.00;;
18879;SDS011;9572;52.378;13.404;2023-08-06T13:11:55;6.13;;;4.22;;
18879;SDS011;9572;52.378;13.404;2023-08-06T13:14:24;4.97;;;4.30;;
18879;SDS011;9572;52.378;13.404;2023-08-06T13:16:51;4.63;;;4.22;;
18879;SDS011;9572;52.378;13.404;2023-08-06T13:19:18;10.13;;;4.10;;
18879;SDS011;9572;52.378;13.404;2023-08-06T13:21:59;4.15;;;3.50;;
18879;SDS011;9572;52.378;13.404;2023-08-06T13:24:28;3.58;;;3.22;;
18879;SDS011;9572;52.378;13.404;2023-08-06T13:26:55;5.40;;;3.58;;
18879;SDS011;9572;52.378;13.404;2023-08-06T13:29:24;3.53;;;3.22;;
18879;SDS011;9572;52.378;13.404;2023-08-06T13:31:51;5.40;;;3.42;;
18879;SDS011;9572;52.378;13.404;2023-08-06T13:34:18;5.20;;;3.10;;
18879;SDS011;9572;52.378;13.404;2023-08-06T13:36:45;5.65;;;3.03;;
18879;SDS011;9572;52.378;13.404;2023-08-06T13:39:12;3.20;;;2.85;;
18879;SDS011;9572;52.378;13.404;2023-08-06T13:41:41;7.55;;;2.85;;
18879;SDS011;9572;52.378;13.404;2023-08-06T13:44:08;4.85;;;3.28;;
18879;SDS011;9572;52.378;13.404;2023-08-06T13:46:37;3.33;;;3.03;;
18879;SDS011;9572;52.378;13.404;2023-08-06T13:49:04;3.45;;;3.10;;
18879;SDS011;9572;52.378;13.404;2023-08-06T13:51:30;4.28;;;2.85;;
18879;SDS011;9572;52.378;13.404;2023-08-06T13:53:59;3.35;;;3.05;;
18879;SDS011;9572;52.378;13.404;2023-08-06T13:56:26;3.30;;;3.00;;
18879;SDS011;9572;52.378;13.404;2023-08-06T13:58:54;4.60;;;3.15;;
18879;SDS011;9572;52.378;13.404;2023-08-06T14:01:21;4.47;;;3.40;;
18879;SDS011;9572;52.378;13.404;2023-08-06T14:03:49;4.30;;;3.15;;
18879;SDS011;9572;52.378;13.404;2023-08-06T14:06:17;3.05;;;2.75;;
18879;SDS011;9572;52.378;13.404;2023-08-06T14:11:22;5.55;;;2.92;;
18879;SDS011;9572;52.378;13.404;2023-08-06T14:13:49;5.57;;;2.95;;
18879;SDS011;9572;52.378;13.404;2023-08-06T14:16:16;2.90;;;2.60;;
18879;SDS011;9572;52.378;13.404;2023-08-06T14:18:43;4.10;;;2.83;;
18879;SDS011;9572;52.378;13.404;2023-08-06T14:21:11;3.42;;;3.08;;
18879;SDS011;9572;52.378;13.404;2023-08-06T14:23:38;6.70;;;3.17;;
18879;SDS011;9572;52.378;13.404;2023-08-06T14:26:06;3.42;;;3.08;;
18879;SDS011;9572;52.378;13.404;2023-08-06T14:28:35;4.82;;;2.90;;
18879;SDS011;9572;52.378;13.404;2023-08-06T14:31:02;3.53;;;3.10;;
18879;SDS011;9572;52.378;13.404;2023-08-06T14:33:29;4.03;;;3.22;;
18879;SDS011;9572;52.378;13.404;2023-08-06T14:35:56;4.50;;;3.40;;
18879;SDS011;9572;52.378;13.404;2023-08-06T14:38:24;3.50;;;3.10;;
18879;SDS011;9572;52.378;13.404;2023-08-06T14:40:51;3.78;;;3.35;;
18879;SDS011;9572;52.378;13.404;2023-08-06T14:43:18;3.35;;;3.03;;
18879;SDS011;9572;52.378;13.404;2023-08-06T14:45:45;3.70;;;3.40;;
18879;SDS011;9572;52.378;13.404;2023-08-06T14:48:12;3.75;;;3.10;;
18879;SDS011;9572;52.378;13.404;2023-08-06T14:50:38;4.47;;;3.58;;
18879;SDS011;9572;52.378;13.404;2023-08-06T14:53:06;5.53;;;3.40;;
18879;SDS011;9572;52.378;13.404;2023-08-06T14:55:37;5.63;;;3.25;;
18879;SDS011;9572;52.378;13.404;2023-08-06T14:58:04;3.75;;;3.38;;
18879;SDS011;9572;52.378;13.404;2023-08-06T15:00:30;5.00;;;4.03;;
18879;SDS011;9572;52.378;13.404;2023-08-06T15:02:57;4.72;;;3.58;;
18879;SDS011;9572;52.378;13.404;2023-08-06T15:05:24;5.10;;;3.90;;
18879;SDS011;9572;52.378;13.404;2023-08-06T15:07:51;4.10;;;3.80;;
18879;SDS011;9572;52.378;13.404;2023-08-06T15:10:19;4.50;;;3.72;;
18879;SDS011;9572;52.378;13.404;2023-08-06T15:17:58;7.10;;;4.35;;
18879;SDS011;9572;52.378;13.404;2023-08-06T15:20:25;6.07;;;3.80;;
18879;SDS011;9572;52.378;13.404;2023-08-06T15:22:52;6.22;;;3.72;;
18879;SDS011;9572;52.378;13.404;2023-08-06T15:25:20;4.18;;;3.78;;
18879;SDS011;9572;52.378;13.404;2023-08-06T15:27:47;8.60;;;4.18;;
18879;SDS011;9572;52.378;13.404;2023-08-06T15:30:14;5.20;;;4.07;;
18879;SDS011;9572;52.378;13.404;2023-08-06T15:32:41;5.60;;;4.57;;
18879;SDS011;9572;52.378;13.404;2023-08-06T15:35:11;4.97;;;4.50;;
18879;SDS011;9572;52.378;13.404;2023-08-06T15:37:38;6.05;;;4.78;;
18879;SDS011;9572;52.378;13.404;2023-08-06T15:40:05;7.82;;;4.82;;
18879;SDS011;9572;52.378;13.404;2023-08-06T15:42:32;5.65;;;4.70;;
18879;SDS011;9572;52.378;13.404;2023-08-06T15:44:59;8.48;;;4.63;;
18879;SDS011;9572;52.378;13.404;2023-08-06T15:47:28;6.47;;;4.60;;
18879;SDS011;9572;52.378;13.404;2023-08-06T15:49:55;5.53;;;3.85;;
18879;SDS011;9572;52.378;13.404;2023-08-06T15:52:23;5.65;;;4.05;;
18879;SDS011;9572;52.378;13.404;2023-08-06T15:54:50;7.97;;;4.88;;
18879;SDS011;9572;52.378;13.404;2023-08-06T15:57:17;8.55;;;4.80;;
18879;SDS011;9572;52.378;13.404;2023-08-06T15:59:43;7.40;;;4.57;;
18879;SDS011;9572;52.378;13.404;2023-08-06T16:02:10;6.05;;;4.97;;
18879;SDS011;9572;52.378;13.404;2023-08-06T16:04:38;5.80;;;4.45;;
18879;SDS011;9572;52.378;13.404;2023-08-06T16:07:05;4.85;;;4.22;;
18879;SDS011;9572;52.378;13.404;2023-08-06T16:09:33;5.18;;;4.25;;
18879;SDS011;9572;52.378;13.404;2023-08-06T16:12:00;7.93;;;5.22;;
18879;SDS011;9572;52.378;13.404;2023-08-06T16:14:27;5.15;;;4.57;;
18879;SDS011;9572;52.378;13.404;2023-08-06T16:16:53;7.82;;;5.20;;